sensor_id;sensor_type;location;lat;lon;timestamp;noise_LAeq;noise_LA_min;noise_LA_max;noise_LA01;noise_LA95
66399;Laerm;54877;51.504;3.894;2023-05-10T00:00:20;35.70;34.29;37.48;;
66399;Laerm;54877;51.504;3.894;2023-05-10T00:02:47;36.43;34.30;54.71;;
66399;Laerm;54877;51.504;3.894;2023-05-10T00:05:13;35.68;34.10;36.91;;
66399;Laerm;54877;51.504;3.894;2023-05-10T00:07:38;42.30;34.23;55.99;;
66399;Laerm;54877;51.504;3.894;2023-05-10T00:10:04;39.74;34.66;51.55;;
66399;Laerm;54877;51.504;3.894;2023-05-10T00:12:29;39.86;34.44;50.44;;
66399;Laerm;54877;51.504;3.894;2023-05-10T00:14:55;42.83;34.37;52.52;;
66399;Laerm;54877;51.504;3.894;2023-05-10T00:17:20;44.09;34.58;58.49;;
66399;Laerm;54877;51.504;3.894;2023-05-10T00:19:45;39.12;34.27;51.20;;
66399;Laerm;54877;51.504;3.894;2023-05-10T00:22:11;35.65;34.32;36.97;;
66399;Laerm;54877;51.504;3.894;2023-05-10T00:24:36;35.65;34.17;37.03;;
66399;Laerm;54877;51.504;3.894;2023-05-10T00:27:01;35.64;34.19;36.91;;
66399;Laerm;54877;51.504;3.894;2023-05-10T00:29:29;35.65;34.25;36.98;;
66399;Laerm;54877;51.504;3.894;2023-05-10T00:31:54;35.63;34.29;36.75;;
66399;Laerm;54877;51.504;3.894;2023-05-10T00:34:20;35.62;34.23;36.93;;
66399;Laerm;54877;51.504;3.894;2023-05-10T00:36:45;35.62;34.03;37.03;;
66399;Laerm;54877;51.504;3.894;2023-05-10T00:39:10;35.60;34.34;36.82;;
66399;Laerm;54877;51.504;3.894;2023-05-10T00:41:36;35.61;34.27;36.83;;
66399;Laerm;54877;51.504;3.894;2023-05-10T00:44:01;35.61;34.22;37.12;;
66399;Laerm;54877;51.504;3.894;2023-05-10T00:46:27;35.62;34.29;36.89;;
66399;Laerm;54877;51.504;3.894;2023-05-10T00:48:53;35.63;34.02;37.14;;
66399;Laerm;54877;51.504;3.894;2023-05-10T00:51:18;35.62;34.02;36.86;;
66399;Laerm;54877;51.504;3.894;2023-05-10T00:53:45;35.62;34.24;37.02;;
66399;Laerm;54877;51.504;3.894;2023-05-10T00:56:12;35.62;34.23;36.86;;
66399;Laerm;54877;51.504;3.894;2023-05-10T00:58:39;35.61;33.71;36.96;;
66399;Laerm;54877;51.504;3.894;2023-05-10T01:01:05;35.62;34.17;37.24;;
66399;Laerm;54877;51.504;3.894;2023-05-10T01:03:32;35.61;33.85;36.91;;
66399;Laerm;54877;51.504;3.894;2023-05-10T01:05:57;35.62;34.09;37.08;;
66399;Laerm;54877;51.504;3.894;2023-05-10T01:08:23;35.61;34.08;36.86;;
66399;Laerm;54877;51.504;3.894;2023-05-10T01:10:49;35.60;34.30;37.01;;
66399;Laerm;54877;51.504;3.894;2023-05-10T01:13:20;35.59;34.11;36.80;;
66399;Laerm;54877;51.504;3.894;2023-05-10T01:15:48;35.59;33.94;36.71;;
66399;Laerm;54877;51.504;3.894;2023-05-10T01:18:15;35.65;34.33;37.14;;
66399;Laerm;54877;51.504;3.894;2023-05-10T01:20:48;35.60;34.26;36.92;;
66399;Laerm;54877;51.504;3.894;2023-05-10T01:28:47;35.59;34.05;36.75;;
66399;Laerm;54877;51.504;3.894;2023-05-10T01:34:23;35.60;34.22;37.00;;
66399;Laerm;54877;51.504;3.894;2023-05-10T01:37:04;35.58;33.76;36.93;;
66399;Laerm;54877;51.504;3.894;2023-05-10T01:39:39;35.58;34.33;36.76;;
66399;Laerm;54877;51.504;3.894;2023-05-10T01:42:11;35.57;34.18;36.93;;
66399;Laerm;54877;51.504;3.894;2023-05-10T01:45:08;35.57;34.23;36.99;;
66399;Laerm;54877;51.504;3.894;2023-05-10T01:47:37;35.57;34.21;36.89;;
66399;Laerm;54877;51.504;3.894;2023-05-10T01:50:09;39.66;34.22;53.22;;
66399;Laerm;54877;51.504;3.894;2023-05-10T01:52:40;46.36;34.62;57.27;;
66399;Laerm;54877;51.504;3.894;2023-05-10T01:55:08;43.87;34.75;52.13;;
66399;Laerm;54877;51.504;3.894;2023-05-10T01:57:36;44.75;34.58;56.46;;
66399;Laerm;54877;51.504;3.894;2023-05-10T02:00:03;37.51;34.27;46.22;;
66399;Laerm;54877;51.504;3.894;2023-05-10T02:02:30;35.73;34.25;52.42;;
66399;Laerm;54877;51.504;3.894;2023-05-10T02:04:59;35.59;34.29;36.74;;
66399;Laerm;54877;51.504;3.894;2023-05-10T02:07:26;35.56;34.08;36.72;;
66399;Laerm;54877;51.504;3.894;2023-05-10T02:09:54;35.55;34.12;36.77;;
66399;Laerm;54877;51.504;3.894;2023-05-10T02:12:22;35.55;34.24;36.70;;
66399;Laerm;54877;51.504;3.894;2023-05-10T02:14:50;35.56;34.16;36.87;;
66399;Laerm;54877;51.504;3.894;2023-05-10T02:17:17;35.56;34.34;37.18;;
66399;Laerm;54877;51.504;3.894;2023-05-10T02:19:44;35.55;34.24;36.77;;
66399;Laerm;54877;51.504;3.894;2023-05-10T02:22:12;35.54;34.22;36.77;;
66399;Laerm;54877;51.504;3.894;2023-05-10T02:24:38;35.53;33.95;37.30;;
66399;Laerm;54877;51.504;3.894;2023-05-10T02:27:06;35.54;34.08;36.96;;
66399;Laerm;54877;51.504;3.894;2023-05-10T02:29:32;35.55;34.01;36.81;;
66399;Laerm;54877;51.504;3.894;2023-05-10T02:31:59;35.54;34.12;36.83;;
66399;Laerm;54877;51.504;3.894;2023-05-10T02:34:26;40.96;34.37;53.48;;
66399;Laerm;54877;51.504;3.894;2023-05-10T02:36:53;36.50;34.06;51.98;;
66399;Laerm;54877;51.504;3.894;2023-05-10T02:39:21;35.52;33.76;36.75;;
66399;Laerm;54877;51.504;3.894;2023-05-10T02:41:48;35.52;34.21;37.24;;
66399;Laerm;54877;51.504;3.894;2023-05-10T02:44:15;35.53;34.23;36.83;;
66399;Laerm;54877;51.504;3.894;2023-05-10T02:46:40;35.53;33.95;36.71;;
66399;Laerm;54877;51.504;3.894;2023-05-10T02:49:06;38.08;34.22;51.40;;
66399;Laerm;54877;51.504;3.894;2023-05-10T02:51:34;38.72;34.05;52.11;;
66399;Laerm;54877;51.504;3.894;2023-05-10T02:54:11;38.44;34.20;54.77;;
66399;Laerm;54877;51.504;3.894;2023-05-10T02:56:42;38.51;34.09;52.34;;
66399;Laerm;54877;51.504;3.894;2023-05-10T02:59:12;38.49;34.31;52.43;;
66399;Laerm;54877;51.504;3.894;2023-05-10T03:01:37;39.02;34.27;55.49;;
66399;Laerm;54877;51.504;3.894;2023-05-10T03:04:03;39.03;34.31;53.01;;
66399;Laerm;54877;51.504;3.894;2023-05-10T03:06:29;39.23;34.17;52.61;;
66399;Laerm;54877;51.504;3.894;2023-05-10T03:08:54;40.00;34.22;53.05;;
66399;Laerm;54877;51.504;3.894;2023-05-10T03:11:56;38.30;34.06;53.19;;
66399;Laerm;54877;51.504;3.894;2023-05-10T03:17:23;39.51;34.13;52.98;;
66399;Laerm;54877;51.504;3.894;2023-05-10T03:19:55;39.35;34.17;52.43;;
66399;Laerm;54877;51.504;3.894;2023-05-10T03:22:25;39.02;34.37;53.21;;
66399;Laerm;54877;51.504;3.894;2023-05-10T03:24:53;40.04;34.39;53.89;;
66399;Laerm;54877;51.504;3.894;2023-05-10T03:27:22;39.80;34.10;52.97;;
66399;Laerm;54877;51.504;3.894;2023-05-10T03:29:48;39.73;34.33;53.49;;
66399;Laerm;54877;51.504;3.894;2023-05-10T03:32:16;38.44;34.37;50.09;;
66399;Laerm;54877;51.504;3.894;2023-05-10T03:34:42;38.54;34.29;50.83;;
66399;Laerm;54877;51.504;3.894;2023-05-10T03:37:10;37.62;34.46;48.79;;
66399;Laerm;54877;51.504;3.894;2023-05-10T03:39:35;36.38;34.34;49.32;;
66399;Laerm;54877;51.504;3.894;2023-05-10T03:42:01;38.11;34.24;51.56;;
66399;Laerm;54877;51.504;3.894;2023-05-10T03:44:26;35.72;34.24;37.18;;
66399;Laerm;54877;51.504;3.894;2023-05-10T03:46:52;36.42;34.18;47.22;;
66399;Laerm;54877;51.504;3.894;2023-05-10T03:49:17;36.28;34.30;49.51;;
66399;Laerm;54877;51.504;3.894;2023-05-10T03:51:42;36.78;33.66;52.36;;
66399;Laerm;54877;51.504;3.894;2023-05-10T03:54:08;35.64;34.06;38.76;;
66399;Laerm;54877;51.504;3.894;2023-05-10T03:56:33;35.65;34.26;38.23;;
66399;Laerm;54877;51.504;3.894;2023-05-10T03:58:58;35.79;34.31;38.64;;
66399;Laerm;54877;51.504;3.894;2023-05-10T04:01:23;35.75;34.11;38.42;;
66399;Laerm;54877;51.504;3.894;2023-05-10T04:03:49;35.78;34.23;48.51;;
66399;Laerm;54877;51.504;3.894;2023-05-10T04:06:14;35.69;34.37;39.04;;
66399;Laerm;54877;51.504;3.894;2023-05-10T04:08:39;39.95;34.30;56.08;;
66399;Laerm;54877;51.504;3.894;2023-05-10T04:11:09;36.73;34.22;51.83;;
66399;Laerm;54877;51.504;3.894;2023-05-10T04:13:35;36.16;34.25;46.07;;
66399;Laerm;54877;51.504;3.894;2023-05-10T04:16:01;36.22;34.18;46.18;;
66399;Laerm;54877;51.504;3.894;2023-05-10T04:18:26;37.13;34.03;47.54;;
66399;Laerm;54877;51.504;3.894;2023-05-10T04:20:51;40.57;34.40;57.52;;
66399;Laerm;54877;51.504;3.894;2023-05-10T04:23:17;35.56;34.23;38.47;;
66399;Laerm;54877;51.504;3.894;2023-05-10T04:25:42;43.90;34.15;63.31;;
66399;Laerm;54877;51.504;3.894;2023-05-10T04:28:08;35.90;34.24;44.06;;
66399;Laerm;54877;51.504;3.894;2023-05-10T04:30:34;35.60;33.69;39.91;;
66399;Laerm;54877;51.504;3.894;2023-05-10T04:33:00;35.81;34.28;45.72;;
66399;Laerm;54877;51.504;3.894;2023-05-10T04:35:25;35.78;34.28;41.26;;
66399;Laerm;54877;51.504;3.894;2023-05-10T04:37:51;36.70;34.36;47.18;;
66399;Laerm;54877;51.504;3.894;2023-05-10T04:40:16;36.92;34.23;47.75;;
66399;Laerm;54877;51.504;3.894;2023-05-10T04:42:43;36.61;34.17;46.06;;
66399;Laerm;54877;51.504;3.894;2023-05-10T04:45:09;36.42;33.84;47.19;;
66399;Laerm;54877;51.504;3.894;2023-05-10T04:47:35;35.62;34.27;37.09;;
66399;Laerm;54877;51.504;3.894;2023-05-10T04:50:02;35.81;34.32;46.35;;
66399;Laerm;54877;51.504;3.894;2023-05-10T04:52:27;35.95;34.27;47.16;;
66399;Laerm;54877;51.504;3.894;2023-05-10T04:54:53;36.27;34.32;59.87;;
66399;Laerm;54877;51.504;3.894;2023-05-10T04:57:18;36.10;34.07;41.21;;
66399;Laerm;54877;51.504;3.894;2023-05-10T04:59:43;43.76;34.34;63.04;;
66399;Laerm;54877;51.504;3.894;2023-05-10T05:02:09;36.49;34.30;45.38;;
66399;Laerm;54877;51.504;3.894;2023-05-10T05:04:34;36.85;34.36;45.43;;
66399;Laerm;54877;51.504;3.894;2023-05-10T05:06:59;41.28;34.59;57.48;;
66399;Laerm;54877;51.504;3.894;2023-05-10T05:09:25;36.31;33.95;44.90;;
66399;Laerm;54877;51.504;3.894;2023-05-10T05:11:50;44.19;33.89;70.73;;
66399;Laerm;54877;51.504;3.894;2023-05-10T05:14:15;48.14;33.33;65.56;;
66399;Laerm;54877;51.504;3.894;2023-05-10T05:16:41;43.24;33.49;61.51;;
66399;Laerm;54877;51.504;3.894;2023-05-10T05:19:06;45.30;33.55;65.78;;
66399;Laerm;54877;51.504;3.894;2023-05-10T05:21:31;45.92;33.36;75.46;;
66399;Laerm;54877;51.504;3.894;2023-05-10T05:23:57;44.70;33.84;70.71;;
66399;Laerm;54877;51.504;3.894;2023-05-10T05:26:23;36.23;33.74;52.85;;
66399;Laerm;54877;51.504;3.894;2023-05-10T05:28:48;44.35;33.77;63.96;;
66399;Laerm;54877;51.504;3.894;2023-05-10T05:31:15;44.03;34.23;61.03;;
66399;Laerm;54877;51.504;3.894;2023-05-10T05:33:40;39.45;34.15;52.81;;
66399;Laerm;54877;51.504;3.894;2023-05-10T05:36:05;42.22;33.80;56.81;;
66399;Laerm;54877;51.504;3.894;2023-05-10T05:38:31;42.64;33.73;59.91;;
66399;Laerm;54877;51.504;3.894;2023-05-10T05:40:56;38.77;33.94;59.30;;
66399;Laerm;54877;51.504;3.894;2023-05-10T05:43:22;37.32;33.67;63.49;;
66399;Laerm;54877;51.504;3.894;2023-05-10T05:45:47;42.64;34.10;61.06;;
66399;Laerm;54877;51.504;3.894;2023-05-10T05:48:13;38.46;33.69;54.44;;
66399;Laerm;54877;51.504;3.894;2023-05-10T05:50:38;37.53;33.77;53.73;;
66399;Laerm;54877;51.504;3.894;2023-05-10T05:53:03;45.66;33.93;61.19;;
66399;Laerm;54877;51.504;3.894;2023-05-10T05:55:29;47.58;33.85;67.78;;
66399;Laerm;54877;51.504;3.894;2023-05-10T05:57:56;46.51;33.82;63.30;;
66399;Laerm;54877;51.504;3.894;2023-05-10T06:00:21;40.22;33.73;69.98;;
66399;Laerm;54877;51.504;3.894;2023-05-10T06:02:47;44.99;34.01;65.40;;
66399;Laerm;54877;51.504;3.894;2023-05-10T06:05:13;47.73;33.94;66.10;;
66399;Laerm;54877;51.504;3.894;2023-05-10T06:07:39;37.66;33.64;62.53;;
66399;Laerm;54877;51.504;3.894;2023-05-10T06:10:07;45.27;34.01;67.46;;
66399;Laerm;54877;51.504;3.894;2023-05-10T06:12:33;46.90;34.19;67.17;;
66399;Laerm;54877;51.504;3.894;2023-05-10T06:14:58;38.82;33.77;60.45;;
66399;Laerm;54877;51.504;3.894;2023-05-10T06:17:23;43.01;33.88;61.61;;
66399;Laerm;54877;51.504;3.894;2023-05-10T06:19:50;49.12;34.09;66.54;;
66399;Laerm;54877;51.504;3.894;2023-05-10T06:22:15;44.63;34.32;64.33;;
66399;Laerm;54877;51.504;3.894;2023-05-10T06:24:41;47.46;34.68;69.32;;
66399;Laerm;54877;51.504;3.894;2023-05-10T06:27:06;49.10;34.66;63.92;;
66399;Laerm;54877;51.504;3.894;2023-05-10T06:29:32;46.07;34.59;63.59;;
66399;Laerm;54877;51.504;3.894;2023-05-10T06:31:57;47.55;34.39;65.56;;
66399;Laerm;54877;51.504;3.894;2023-05-10T06:34:23;45.07;34.28;60.39;;
66399;Laerm;54877;51.504;3.894;2023-05-10T06:36:49;48.27;34.07;65.71;;
66399;Laerm;54877;51.504;3.894;2023-05-10T06:39:14;42.44;33.97;64.18;;
66399;Laerm;54877;51.504;3.894;2023-05-10T06:41:39;48.01;33.97;67.83;;
66399;Laerm;54877;51.504;3.894;2023-05-10T06:44:05;46.46;33.68;65.58;;
66399;Laerm;54877;51.504;3.894;2023-05-10T06:46:31;44.24;33.40;66.11;;
66399;Laerm;54877;51.504;3.894;2023-05-10T06:48:56;44.01;33.84;62.33;;
66399;Laerm;54877;51.504;3.894;2023-05-10T06:51:21;44.54;33.65;60.33;;
66399;Laerm;54877;51.504;3.894;2023-05-10T06:53:47;38.73;33.99;57.66;;
66399;Laerm;54877;51.504;3.894;2023-05-10T06:56:12;46.40;33.91;67.45;;
66399;Laerm;54877;51.504;3.894;2023-05-10T06:58:38;43.41;33.65;67.80;;
66399;Laerm;54877;51.504;3.894;2023-05-10T07:01:04;47.89;34.01;63.99;;
66399;Laerm;54877;51.504;3.894;2023-05-10T07:03:30;44.01;33.78;63.44;;
66399;Laerm;54877;51.504;3.894;2023-05-10T07:06:00;43.33;34.44;57.27;;
66399;Laerm;54877;51.504;3.894;2023-05-10T07:08:28;42.20;33.80;61.12;;
66399;Laerm;54877;51.504;3.894;2023-05-10T07:11:07;41.14;33.53;56.71;;
66399;Laerm;54877;51.504;3.894;2023-05-10T07:13:33;43.50;34.01;60.41;;
66399;Laerm;54877;51.504;3.894;2023-05-10T07:15:59;48.15;33.61;63.98;;
66399;Laerm;54877;51.504;3.894;2023-05-10T07:18:25;46.08;34.20;63.78;;
66399;Laerm;54877;51.504;3.894;2023-05-10T07:20:51;38.72;33.61;55.21;;
66399;Laerm;54877;51.504;3.894;2023-05-10T07:23:16;49.41;34.55;67.84;;
66399;Laerm;54877;51.504;3.894;2023-05-10T07:25:48;47.00;33.74;72.58;;
66399;Laerm;54877;51.504;3.894;2023-05-10T07:28:15;41.05;33.36;64.34;;
66399;Laerm;54877;51.504;3.894;2023-05-10T07:30:41;39.05;33.31;68.83;;
66399;Laerm;54877;51.504;3.894;2023-05-10T07:33:08;45.08;33.00;63.87;;
66399;Laerm;54877;51.504;3.894;2023-05-10T07:35:34;39.34;33.25;65.11;;
66399;Laerm;54877;51.504;3.894;2023-05-10T07:38:00;36.75;33.20;53.57;;
66399;Laerm;54877;51.504;3.894;2023-05-10T07:40:26;39.94;33.12;68.34;;
66399;Laerm;54877;51.504;3.894;2023-05-10T07:42:51;44.71;33.51;71.19;;
66399;Laerm;54877;51.504;3.894;2023-05-10T07:45:17;45.10;33.37;72.72;;
66399;Laerm;54877;51.504;3.894;2023-05-10T07:47:42;40.53;34.01;55.81;;
66399;Laerm;54877;51.504;3.894;2023-05-10T07:50:08;36.95;33.42;52.05;;
66399;Laerm;54877;51.504;3.894;2023-05-10T07:52:33;42.89;33.74;59.46;;
66399;Laerm;54877;51.504;3.894;2023-05-10T07:54:58;47.35;34.06;73.83;;
66399;Laerm;54877;51.504;3.894;2023-05-10T07:57:24;48.21;34.42;68.66;;
66399;Laerm;54877;51.504;3.894;2023-05-10T07:59:49;37.99;34.31;54.21;;
66399;Laerm;54877;51.504;3.894;2023-05-10T08:02:14;39.19;33.41;58.72;;
66399;Laerm;54877;51.504;3.894;2023-05-10T08:04:40;38.51;33.51;55.41;;
66399;Laerm;54877;51.504;3.894;2023-05-10T08:07:05;43.53;33.24;60.98;;
66399;Laerm;54877;51.504;3.894;2023-05-10T08:09:30;35.98;32.98;53.18;;
66399;Laerm;54877;51.504;3.894;2023-05-10T08:11:56;47.03;33.44;62.71;;
66399;Laerm;54877;51.504;3.894;2023-05-10T08:14:21;38.64;33.53;54.42;;
66399;Laerm;54877;51.504;3.894;2023-05-10T08:16:47;36.89;33.10;55.06;;
66399;Laerm;54877;51.504;3.894;2023-05-10T08:19:12;37.73;33.60;56.13;;
66399;Laerm;54877;51.504;3.894;2023-05-10T08:21:37;45.33;33.55;64.93;;
66399;Laerm;54877;51.504;3.894;2023-05-10T08:24:03;38.98;33.51;63.59;;
66399;Laerm;54877;51.504;3.894;2023-05-10T08:26:28;45.94;34.30;64.26;;
66399;Laerm;54877;51.504;3.894;2023-05-10T08:28:54;41.59;33.56;66.01;;
66399;Laerm;54877;51.504;3.894;2023-05-10T08:31:19;45.17;33.71;64.74;;
66399;Laerm;54877;51.504;3.894;2023-05-10T08:33:44;46.54;33.18;63.65;;
66399;Laerm;54877;51.504;3.894;2023-05-10T08:36:10;38.90;33.07;51.13;;
66399;Laerm;54877;51.504;3.894;2023-05-10T08:38:37;50.28;33.35;65.58;;
66399;Laerm;54877;51.504;3.894;2023-05-10T08:41:03;44.02;33.35;62.14;;
66399;Laerm;54877;51.504;3.894;2023-05-10T08:43:29;41.62;33.38;61.80;;
66399;Laerm;54877;51.504;3.894;2023-05-10T08:45:55;44.93;33.75;61.87;;
66399;Laerm;54877;51.504;3.894;2023-05-10T08:48:24;38.32;33.43;49.45;;
66399;Laerm;54877;51.504;3.894;2023-05-10T08:50:54;45.42;33.58;66.22;;
66399;Laerm;54877;51.504;3.894;2023-05-10T08:53:24;39.35;33.45;52.07;;
66399;Laerm;54877;51.504;3.894;2023-05-10T08:55:52;46.73;33.73;66.91;;
66399;Laerm;54877;51.504;3.894;2023-05-10T08:58:18;37.26;34.02;48.33;;
66399;Laerm;54877;51.504;3.894;2023-05-10T09:00:45;45.75;33.08;64.90;;
66399;Laerm;54877;51.504;3.894;2023-05-10T09:03:10;42.47;32.93;61.59;;
66399;Laerm;54877;51.504;3.894;2023-05-10T09:05:37;36.64;32.87;53.26;;
66399;Laerm;54877;51.504;3.894;2023-05-10T09:08:02;43.69;33.22;59.67;;
66399;Laerm;54877;51.504;3.894;2023-05-10T09:10:29;39.32;33.56;51.48;;
66399;Laerm;54877;51.504;3.894;2023-05-10T09:12:56;42.98;33.24;58.96;;
66399;Laerm;54877;51.504;3.894;2023-05-10T09:15:22;40.55;33.68;56.53;;
66399;Laerm;54877;51.504;3.894;2023-05-10T09:17:49;41.14;33.44;60.56;;
66399;Laerm;54877;51.504;3.894;2023-05-10T09:20:14;39.91;33.57;56.26;;
66399;Laerm;54877;51.504;3.894;2023-05-10T09:22:42;39.72;33.44;54.75;;
66399;Laerm;54877;51.504;3.894;2023-05-10T09:27:35;35.71;33.31;51.11;;
66399;Laerm;54877;51.504;3.894;2023-05-10T09:30:01;40.01;32.94;54.03;;
66399;Laerm;54877;51.504;3.894;2023-05-10T09:32:37;35.86;33.19;49.66;;
66399;Laerm;54877;51.504;3.894;2023-05-10T09:35:17;36.27;33.25;52.15;;
66399;Laerm;54877;51.504;3.894;2023-05-10T09:37:45;35.41;33.06;45.56;;
66399;Laerm;54877;51.504;3.894;2023-05-10T09:40:14;39.67;33.76;58.73;;
66399;Laerm;54877;51.504;3.894;2023-05-10T09:42:42;47.76;33.51;63.93;;
66399;Laerm;54877;51.504;3.894;2023-05-10T09:45:15;35.94;33.25;42.42;;
66399;Laerm;54877;51.504;3.894;2023-05-10T09:47:40;41.78;33.30;58.44;;
66399;Laerm;54877;51.504;3.894;2023-05-10T09:50:06;35.78;33.05;51.05;;
66399;Laerm;54877;51.504;3.894;2023-05-10T09:55:11;36.10;33.06;47.46;;
66399;Laerm;54877;51.504;3.894;2023-05-10T09:57:37;40.84;33.16;71.69;;
66399;Laerm;54877;51.504;3.894;2023-05-10T10:00:03;47.32;32.80;65.88;;
66399;Laerm;54877;51.504;3.894;2023-05-10T10:02:31;43.57;33.46;58.27;;
66399;Laerm;54877;51.504;3.894;2023-05-10T10:04:57;44.15;33.03;65.21;;
66399;Laerm;54877;51.504;3.894;2023-05-10T10:07:24;44.73;33.10;63.60;;
66399;Laerm;54877;51.504;3.894;2023-05-10T10:09:52;39.20;33.14;56.95;;
66399;Laerm;54877;51.504;3.894;2023-05-10T10:12:18;47.37;33.09;67.05;;
66399;Laerm;54877;51.504;3.894;2023-05-10T10:14:46;43.27;32.83;62.65;;
66399;Laerm;54877;51.504;3.894;2023-05-10T10:17:12;42.08;33.27;65.01;;
66399;Laerm;54877;51.504;3.894;2023-05-10T10:19:38;36.55;33.02;49.19;;
66399;Laerm;54877;51.504;3.894;2023-05-10T10:22:04;36.48;33.06;54.49;;
66399;Laerm;54877;51.504;3.894;2023-05-10T10:24:29;35.97;32.75;52.23;;
66399;Laerm;54877;51.504;3.894;2023-05-10T10:30:07;44.99;33.12;62.72;;
66399;Laerm;54877;51.504;3.894;2023-05-10T10:35:39;50.27;32.78;76.93;;
66399;Laerm;54877;51.504;3.894;2023-05-10T10:38:07;44.89;32.90;72.84;;
66399;Laerm;54877;51.504;3.894;2023-05-10T10:40:33;45.88;32.77;76.23;;
66399;Laerm;54877;51.504;3.894;2023-05-10T10:43:25;43.33;32.92;73.17;;
66399;Laerm;54877;51.504;3.894;2023-05-10T10:46:10;47.28;33.12;79.82;;
66399;Laerm;54877;51.504;3.894;2023-05-10T10:48:36;45.21;32.98;73.41;;
66399;Laerm;54877;51.504;3.894;2023-05-10T10:51:02;46.91;32.98;78.41;;
66399;Laerm;54877;51.504;3.894;2023-05-10T10:53:28;48.51;33.37;75.19;;
66399;Laerm;54877;51.504;3.894;2023-05-10T10:56:10;43.37;32.98;64.47;;
66399;Laerm;54877;51.504;3.894;2023-05-10T10:58:38;40.87;33.03;63.27;;
66399;Laerm;54877;51.504;3.894;2023-05-10T11:01:14;37.98;32.97;57.05;;
66399;Laerm;54877;51.504;3.894;2023-05-10T11:03:40;42.30;33.05;61.76;;
66399;Laerm;54877;51.504;3.894;2023-05-10T11:06:06;45.10;33.23;62.23;;
66399;Laerm;54877;51.504;3.894;2023-05-10T11:08:40;35.38;32.77;51.67;;
66399;Laerm;54877;51.504;3.894;2023-05-10T11:11:07;36.75;32.94;56.08;;
66399;Laerm;54877;51.504;3.894;2023-05-10T11:16:18;39.80;33.60;59.77;;
66399;Laerm;54877;51.504;3.894;2023-05-10T11:18:54;42.19;33.31;60.60;;
66399;Laerm;54877;51.504;3.894;2023-05-10T11:21:22;37.05;32.98;55.25;;
66399;Laerm;54877;51.504;3.894;2023-05-10T11:26:13;47.31;33.11;77.50;;
66399;Laerm;54877;51.504;3.894;2023-05-10T11:28:46;45.94;33.48;74.72;;
66399;Laerm;54877;51.504;3.894;2023-05-10T11:31:19;44.56;33.83;61.49;;
66399;Laerm;54877;51.504;3.894;2023-05-10T11:33:47;41.86;34.00;57.51;;
66399;Laerm;54877;51.504;3.894;2023-05-10T11:36:39;46.77;33.98;67.17;;
66399;Laerm;54877;51.504;3.894;2023-05-10T11:39:05;47.38;34.45;71.80;;
66399;Laerm;54877;51.504;3.894;2023-05-10T11:41:31;50.84;33.78;75.53;;
66399;Laerm;54877;51.504;3.894;2023-05-10T11:43:57;47.47;33.39;74.97;;
66399;Laerm;54877;51.504;3.894;2023-05-10T11:46:25;41.11;33.13;62.68;;
66399;Laerm;54877;51.504;3.894;2023-05-10T11:48:53;45.79;33.50;64.82;;
66399;Laerm;54877;51.504;3.894;2023-05-10T11:51:21;36.59;33.21;51.78;;
66399;Laerm;54877;51.504;3.894;2023-05-10T11:53:47;44.15;33.00;63.19;;
66399;Laerm;54877;51.504;3.894;2023-05-10T11:56:12;46.15;33.49;71.62;;
66399;Laerm;54877;51.504;3.894;2023-05-10T11:58:39;50.41;33.09;69.32;;
66399;Laerm;54877;51.504;3.894;2023-05-10T12:01:05;48.40;33.27;73.53;;
66399;Laerm;54877;51.504;3.894;2023-05-10T12:03:31;40.10;33.29;71.28;;
66399;Laerm;54877;51.504;3.894;2023-05-10T12:05:58;41.17;32.87;65.76;;
66399;Laerm;54877;51.504;3.894;2023-05-10T12:08:25;50.35;33.23;67.06;;
66399;Laerm;54877;51.504;3.894;2023-05-10T12:10:51;61.40;33.47;81.07;;
66399;Laerm;54877;51.504;3.894;2023-05-10T12:13:18;51.32;33.53;72.18;;
66399;Laerm;54877;51.504;3.894;2023-05-10T12:15:44;38.24;33.09;54.91;;
66399;Laerm;54877;51.504;3.894;2023-05-10T12:18:11;40.82;33.20;56.53;;
66399;Laerm;54877;51.504;3.894;2023-05-10T12:20:36;36.38;33.20;54.82;;
66399;Laerm;54877;51.504;3.894;2023-05-10T12:23:02;40.28;33.26;60.20;;
66399;Laerm;54877;51.504;3.894;2023-05-10T12:25:32;37.14;33.37;48.53;;
66399;Laerm;54877;51.504;3.894;2023-05-10T12:27:59;53.13;33.42;70.61;;
66399;Laerm;54877;51.504;3.894;2023-05-10T12:30:30;37.77;33.31;54.47;;
66399;Laerm;54877;51.504;3.894;2023-05-10T12:33:07;38.60;33.19;64.13;;
66399;Laerm;54877;51.504;3.894;2023-05-10T12:35:33;42.47;33.53;63.08;;
66399;Laerm;54877;51.504;3.894;2023-05-10T12:37:59;35.70;33.26;51.63;;
66399;Laerm;54877;51.504;3.894;2023-05-10T12:40:24;45.03;33.25;68.89;;
66399;Laerm;54877;51.504;3.894;2023-05-10T12:42:50;44.90;33.17;63.97;;
66399;Laerm;54877;51.504;3.894;2023-05-10T12:45:17;36.40;33.25;52.03;;
66399;Laerm;54877;51.504;3.894;2023-05-10T12:47:43;42.34;33.28;59.20;;
66399;Laerm;54877;51.504;3.894;2023-05-10T12:50:08;39.25;33.17;59.76;;
66399;Laerm;54877;51.504;3.894;2023-05-10T12:52:34;42.64;33.37;58.28;;
66399;Laerm;54877;51.504;3.894;2023-05-10T12:55:00;40.67;33.36;65.97;;
66399;Laerm;54877;51.504;3.894;2023-05-10T12:57:26;44.78;33.54;66.60;;
66399;Laerm;54877;51.504;3.894;2023-05-10T12:59:51;37.90;33.60;59.42;;
66399;Laerm;54877;51.504;3.894;2023-05-10T13:02:16;38.84;33.40;60.52;;
66399;Laerm;54877;51.504;3.894;2023-05-10T13:04:46;36.83;33.10;55.72;;
66399;Laerm;54877;51.504;3.894;2023-05-10T13:07:12;40.77;32.89;64.39;;
66399;Laerm;54877;51.504;3.894;2023-05-10T13:09:37;44.89;33.12;64.62;;
66399;Laerm;54877;51.504;3.894;2023-05-10T13:12:03;41.91;33.27;59.60;;
66399;Laerm;54877;51.504;3.894;2023-05-10T13:14:29;38.62;32.93;68.97;;
66399;Laerm;54877;51.504;3.894;2023-05-10T13:16:54;35.49;32.97;48.40;;
66399;Laerm;54877;51.504;3.894;2023-05-10T13:19:20;40.41;33.04;58.50;;
66399;Laerm;54877;51.504;3.894;2023-05-10T13:21:45;39.69;33.10;55.03;;
66399;Laerm;54877;51.504;3.894;2023-05-10T13:24:11;44.64;33.15;64.33;;
66399;Laerm;54877;51.504;3.894;2023-05-10T13:26:41;37.14;32.91;52.90;;
66399;Laerm;54877;51.504;3.894;2023-05-10T13:29:07;45.41;32.87;63.75;;
66399;Laerm;54877;51.504;3.894;2023-05-10T13:31:33;36.04;32.88;54.60;;
66399;Laerm;54877;51.504;3.894;2023-05-10T13:33:59;44.12;33.24;62.62;;
66399;Laerm;54877;51.504;3.894;2023-05-10T13:36:24;42.47;32.96;59.72;;
66399;Laerm;54877;51.504;3.894;2023-05-10T13:38:49;42.37;33.05;59.78;;
66399;Laerm;54877;51.504;3.894;2023-05-10T13:41:15;35.97;32.80;48.46;;
66399;Laerm;54877;51.504;3.894;2023-05-10T13:43:40;37.63;33.35;52.94;;
66399;Laerm;54877;51.504;3.894;2023-05-10T13:46:06;50.37;33.62;72.65;;
66399;Laerm;54877;51.504;3.894;2023-05-10T13:48:31;58.75;33.25;83.23;;
66399;Laerm;54877;51.504;3.894;2023-05-10T13:50:56;39.57;33.07;59.23;;
66399;Laerm;54877;51.504;3.894;2023-05-10T13:53:22;43.13;33.19;61.32;;
66399;Laerm;54877;51.504;3.894;2023-05-10T13:55:47;35.57;32.95;47.97;;
66399;Laerm;54877;51.504;3.894;2023-05-10T13:58:12;45.77;33.63;66.21;;
66399;Laerm;54877;51.504;3.894;2023-05-10T14:00:38;36.69;33.05;52.63;;
66399;Laerm;54877;51.504;3.894;2023-05-10T14:03:03;35.36;33.28;47.08;;
66399;Laerm;54877;51.504;3.894;2023-05-10T14:05:30;37.34;33.12;56.44;;
66399;Laerm;54877;51.504;3.894;2023-05-10T14:07:55;36.01;33.12;49.64;;
66399;Laerm;54877;51.504;3.894;2023-05-10T14:10:21;35.81;33.06;47.30;;